createdAt,value
2023-04-04T00:00:19.636Z,99.47
2023-04-04T00:02:46.802Z,99.47
2023-04-04T00:05:13.892Z,100.00
2023-04-04T00:07:41.046Z,100.00
2023-04-04T00:10:08.660Z,100.00
2023-04-04T00:12:36.309Z,100.00
2023-04-04T00:15:03.951Z,100.00
2023-04-04T00:17:30.981Z,100.00
2023-04-04T00:19:58.554Z,100.00
2023-04-04T00:22:25.893Z,100.00
2023-04-04T00:24:52.916Z,100.00
2023-04-04T00:27:19.904Z,100.00
2023-04-04T00:29:47.050Z,100.00
2023-04-04T00:32:14.192Z,100.00
2023-04-04T00:34:41.406Z,100.00
2023-04-04T00:37:12.010Z,100.00
2023-04-04T00:39:39.035Z,100.00
2023-04-04T00:42:06.634Z,100.00
2023-04-04T00:44:35.668Z,100.00
2023-04-04T00:47:04.375Z,100.00
2023-04-04T00:49:31.399Z,100.00
2023-04-04T00:51:59.208Z,100.00
2023-04-04T00:54:26.627Z,100.00
2023-04-04T00:56:55.366Z,100.00
2023-04-04T00:59:26.460Z,100.00
2023-04-04T01:01:53.892Z,100.00
2023-04-04T01:04:21.267Z,100.00
2023-04-04T01:06:49.799Z,100.00
2023-04-04T01:09:20.601Z,100.00
2023-04-04T01:11:47.788Z,100.00
2023-04-04T01:14:14.810Z,100.00
2023-04-04T01:16:42.024Z,100.00
2023-04-04T01:19:17.438Z,100.00
2023-04-04T01:21:46.487Z,100.00
2023-04-04T01:24:16.784Z,100.00
2023-04-04T01:27:04.682Z,100.00
2023-04-04T01:29:33.528Z,100.00
2023-04-04T01:32:12.987Z,100.00
2023-04-04T01:34:52.946Z,100.00
2023-04-04T01:37:38.012Z,100.00
2023-04-04T01:40:17.936Z,100.00
2023-04-04T01:42:49.231Z,100.00
2023-04-04T01:45:17.080Z,100.00
2023-04-04T01:47:45.195Z,100.00
2023-04-04T01:50:16.744Z,100.00
2023-04-04T01:52:44.422Z,100.00
2023-04-04T01:55:11.430Z,100.00
2023-04-04T01:57:38.890Z,100.00
2023-04-04T02:00:07.279Z,100.00
2023-04-04T02:02:43.230Z,100.00
2023-04-04T02:05:11.470Z,100.00
2023-04-04T02:07:38.851Z,100.00
2023-04-04T02:10:14.022Z,100.00
2023-04-04T02:12:41.206Z,100.00
2023-04-04T02:15:08.816Z,100.00
2023-04-04T02:17:35.977Z,100.00
2023-04-04T02:20:03.954Z,100.00
2023-04-04T02:22:31.046Z,100.00
2023-04-04T02:24:58.126Z,100.00
2023-04-04T02:27:25.324Z,100.00
2023-04-04T02:29:53.846Z,100.00
2023-04-04T02:32:21.560Z,100.00
2023-04-04T02:34:49.035Z,100.00
2023-04-04T02:37:17.772Z,100.00
2023-04-04T02:39:45.627Z,100.00
2023-04-04T02:42:12.695Z,100.00
2023-04-04T02:44:39.728Z,100.00
2023-04-04T02:47:11.076Z,100.00
2023-04-04T02:49:38.279Z,100.00
2023-04-04T02:52:05.367Z,100.00
2023-04-04T02:54:36.844Z,100.00
2023-04-04T02:57:04.999Z,100.00
2023-04-04T02:59:32.261Z,100.00
2023-04-04T03:01:59.386Z,100.00
2023-04-04T03:04:29.023Z,100.00
2023-04-04T03:06:57.124Z,100.00
2023-04-04T03:09:24.168Z,100.00
2023-04-04T03:11:51.699Z,100.00
2023-04-04T03:14:18.932Z,100.00
2023-04-04T03:16:46.478Z,100.00
2023-04-04T03:19:13.723Z,100.00
2023-04-04T03:21:40.844Z,100.00
2023-04-04T03:24:08.316Z,100.00
2023-04-04T03:26:35.380Z,100.00
2023-04-04T03:29:04.324Z,100.00
2023-04-04T03:31:31.510Z,100.00
2023-04-04T03:34:00.806Z,100.00
2023-04-04T03:36:27.992Z,100.00
2023-04-04T03:38:55.000Z,100.00
2023-04-04T03:41:22.575Z,100.00
2023-04-04T03:43:49.959Z,100.00
2023-04-04T03:46:17.066Z,100.00
2023-04-04T03:48:45.560Z,100.00
2023-04-04T03:51:12.764Z,100.00
2023-04-04T03:53:39.996Z,100.00
2023-04-04T03:56:08.081Z,100.00
2023-04-04T03:58:36.556Z,100.00
2023-04-04T04:01:03.678Z,100.00
2023-04-04T04:03:31.907Z,100.00
2023-04-04T04:06:03.332Z,100.00
2023-04-04T04:08:30.346Z,100.00
2023-04-04T04:11:04.073Z,100.00
2023-04-04T04:13:31.095Z,100.00
2023-04-04T04:15:58.692Z,100.00
2023-04-04T04:18:27.453Z,100.00
2023-04-04T04:20:59.920Z,100.00
2023-04-04T04:23:27.075Z,100.00
2023-04-04T04:25:54.136Z,100.00
2023-04-04T04:28:33.979Z,100.00
2023-04-04T04:31:09.493Z,100.00
2023-04-04T04:33:42.800Z,100.00
2023-04-04T04:36:10.656Z,100.00
2023-04-04T04:39:06.773Z,100.00
2023-04-04T04:41:38.453Z,100.00
2023-04-04T04:44:07.186Z,100.00
2023-04-04T04:46:34.363Z,100.00
2023-04-04T04:49:05.155Z,100.00
2023-04-04T04:51:32.794Z,100.00
2023-04-04T04:54:00.849Z,100.00
2023-04-04T04:56:28.957Z,100.00
2023-04-04T04:59:03.006Z,100.00
2023-04-04T05:01:30.194Z,100.00
2023-04-04T05:03:58.182Z,100.00
2023-04-04T05:06:33.255Z,100.00
2023-04-04T05:09:00.640Z,100.00
2023-04-04T05:11:32.184Z,100.00
2023-04-04T05:14:00.297Z,100.00
2023-04-04T05:16:31.102Z,100.00
2023-04-04T05:18:58.855Z,100.00
2023-04-04T05:21:25.960Z,100.00
2023-04-04T05:23:55.691Z,100.00
2023-04-04T05:26:24.905Z,100.00
2023-04-04T05:28:54.550Z,100.00
2023-04-04T05:31:23.119Z,100.00
2023-04-04T05:33:53.784Z,100.00
2023-04-04T05:36:29.319Z,100.00
2023-04-04T05:39:02.813Z,100.00
2023-04-04T05:41:32.825Z,100.00
2023-04-04T05:44:05.138Z,100.00
2023-04-04T05:46:32.471Z,100.00
2023-04-04T05:48:59.627Z,100.00
2023-04-04T05:51:27.462Z,100.00
2023-04-04T05:54:07.469Z,100.00
2023-04-04T05:56:35.546Z,100.00
2023-04-04T05:59:05.896Z,100.00
2023-04-04T06:01:38.696Z,100.00
2023-04-04T06:04:11.884Z,100.00
2023-04-04T06:06:39.357Z,100.00
2023-04-04T06:09:08.770Z,100.00
2023-04-04T06:11:38.101Z,100.00
2023-04-04T06:14:08.694Z,100.00
2023-04-04T06:16:37.081Z,100.00
2023-04-04T06:19:04.371Z,100.00
2023-04-04T06:21:31.603Z,100.00
2023-04-04T06:23:59.154Z,100.00
2023-04-04T06:26:26.995Z,100.00
2023-04-04T06:28:55.733Z,100.00
2023-04-04T06:31:29.671Z,100.00
2023-04-04T06:34:01.555Z,100.00
2023-04-04T06:36:32.149Z,100.00
2023-04-04T06:39:02.518Z,100.00
2023-04-04T06:41:30.318Z,100.00
2023-04-04T06:43:58.337Z,100.00
2023-04-04T06:46:26.991Z,100.00
2023-04-04T06:48:54.860Z,98.33
2023-04-04T06:51:21.975Z,98.82
2023-04-04T06:53:49.910Z,97.49
2023-04-04T06:56:17.041Z,98.09
2023-04-04T06:58:44.217Z,97.56
2023-04-04T07:01:11.809Z,97.45
2023-04-04T07:03:39.028Z,93.38
2023-04-04T07:06:06.048Z,93.28
2023-04-04T07:08:36.063Z,91.96
2023-04-04T07:11:08.061Z,89.53
2023-04-04T07:13:35.454Z,88.70
2023-04-04T07:16:02.732Z,87.69
2023-04-04T07:18:29.910Z,86.93
2023-04-04T07:20:58.440Z,87.47
2023-04-04T07:23:25.523Z,87.10
2023-04-04T07:25:53.364Z,85.67
2023-04-04T07:28:20.844Z,83.97
2023-04-04T07:30:47.855Z,80.88
2023-04-04T07:33:15.000Z,80.98
2023-04-04T07:35:42.201Z,81.59
2023-04-04T07:38:10.200Z,77.65
2023-04-04T07:40:37.639Z,75.06
2023-04-04T07:43:04.985Z,73.25
2023-04-04T07:45:32.009Z,70.35
2023-04-04T07:47:59.349Z,67.48
2023-04-04T07:50:27.094Z,66.89
2023-04-04T07:52:58.520Z,67.37
2023-04-04T07:55:26.010Z,70.10
2023-04-04T07:57:53.526Z,65.51
2023-04-04T08:00:22.093Z,69.05
2023-04-04T08:02:54.085Z,65.29
2023-04-04T08:05:21.745Z,66.13
2023-04-04T08:07:48.986Z,64.11
2023-04-04T08:10:19.164Z,62.75
2023-04-04T08:12:46.304Z,62.20
2023-04-04T08:15:13.464Z,60.16
2023-04-04T08:17:40.756Z,59.33
2023-04-04T08:20:07.987Z,58.37
2023-04-04T08:22:35.021Z,57.31
2023-04-04T08:25:02.024Z,56.20
2023-04-04T08:27:29.020Z,55.06
2023-04-04T08:29:56.315Z,55.77
2023-04-04T08:32:23.704Z,55.40
2023-04-04T08:34:51.164Z,54.82
2023-04-04T08:37:18.351Z,55.23
2023-04-04T08:39:45.361Z,53.86
2023-04-04T08:42:16.754Z,55.45
2023-04-04T08:44:45.662Z,53.21
2023-04-04T08:47:13.381Z,56.54
2023-04-04T08:49:46.133Z,53.35
2023-04-04T08:52:15.810Z,52.67
2023-04-04T08:54:43.571Z,51.39
2023-04-04T08:57:10.696Z,50.89
2023-04-04T08:59:37.910Z,53.11
2023-04-04T09:02:15.643Z,52.78
2023-04-04T09:04:48.824Z,52.31
2023-04-04T09:07:26.295Z,53.02
2023-04-04T09:09:54.038Z,51.95
2023-04-04T09:12:22.709Z,50.97
2023-04-04T09:14:52.027Z,51.80
2023-04-04T09:17:19.364Z,50.89
2023-04-04T09:19:46.670Z,50.72
2023-04-04T09:22:15.988Z,50.62
2023-04-04T09:24:43.656Z,50.57
2023-04-04T09:27:12.151Z,51.58
2023-04-04T09:29:40.211Z,49.84
2023-04-04T09:32:14.374Z,50.04
2023-04-04T09:34:43.580Z,51.29
2023-04-04T09:37:16.881Z,51.95
2023-04-04T09:39:44.366Z,51.27
2023-04-04T09:42:12.288Z,50.42
2023-04-04T09:44:39.482Z,49.33
2023-04-04T09:47:31.230Z,50.77
2023-04-04T09:50:02.831Z,49.91
2023-04-04T09:52:35.613Z,50.44
2023-04-04T09:55:04.650Z,49.71
2023-04-04T09:57:34.492Z,49.61
2023-04-04T10:00:09.501Z,48.77
2023-04-04T10:02:38.756Z,48.63
2023-04-04T10:05:10.138Z,49.07
2023-04-04T10:07:39.892Z,48.31
2023-04-04T10:10:09.002Z,48.89
2023-04-04T10:12:39.189Z,47.96
2023-04-04T10:15:06.876Z,46.89
2023-04-04T10:17:39.091Z,46.18
2023-04-04T10:20:08.938Z,47.97
2023-04-04T10:22:37.780Z,45.81
2023-04-04T10:25:05.938Z,47.24
2023-04-04T10:27:34.159Z,46.74
2023-04-04T10:30:02.081Z,47.60
2023-04-04T10:32:43.525Z,49.86
2023-04-04T10:35:11.687Z,48.84
2023-04-04T10:37:59.369Z,46.98
2023-04-04T10:40:32.421Z,47.66
2023-04-04T10:43:03.844Z,46.70
2023-04-04T10:45:38.368Z,46.52
2023-04-04T10:48:08.166Z,47.28
2023-04-04T10:51:04.663Z,44.19
2023-04-04T10:53:32.641Z,44.28
2023-04-04T10:56:01.310Z,44.01
2023-04-04T10:58:28.980Z,45.39
2023-04-04T11:00:57.668Z,47.38
2023-04-04T11:03:25.536Z,46.37
2023-04-04T11:06:00.207Z,45.21
2023-04-04T11:08:28.516Z,45.52
2023-04-04T11:10:57.371Z,45.99
2023-04-04T11:13:32.806Z,45.32
2023-04-04T11:16:13.897Z,44.14
2023-04-04T11:18:45.352Z,44.15
2023-04-04T11:21:20.516Z,44.97
2023-04-04T11:23:47.559Z,44.40
2023-04-04T11:26:35.959Z,43.05
2023-04-04T11:29:09.728Z,44.41
2023-04-04T11:31:43.687Z,43.94
2023-04-04T11:34:13.593Z,45.24
2023-04-04T11:36:42.459Z,45.00
2023-04-04T11:39:14.776Z,43.60
2023-04-04T11:42:03.392Z,44.21
2023-04-04T11:44:32.787Z,47.65
2023-04-04T11:47:05.923Z,45.06
2023-04-04T11:49:37.950Z,45.74
2023-04-04T11:52:16.238Z,45.23
2023-04-04T11:54:45.718Z,43.51
2023-04-04T11:57:14.688Z,43.88
2023-04-04T11:59:46.970Z,43.68
2023-04-04T12:02:19.204Z,43.11
2023-04-04T12:04:47.430Z,45.56
2023-04-04T12:07:17.233Z,43.45
2023-04-04T12:09:44.951Z,43.29
2023-04-04T12:12:14.419Z,41.99
2023-04-04T12:14:42.330Z,41.21
2023-04-04T12:17:09.693Z,42.13
2023-04-04T12:19:38.785Z,42.09
2023-04-04T12:22:07.947Z,39.42
2023-04-04T12:24:36.278Z,39.63
2023-04-04T12:27:03.955Z,39.67
2023-04-04T12:29:36.165Z,41.78
2023-04-04T12:32:04.426Z,42.00
2023-04-04T12:34:36.104Z,40.86
2023-04-04T12:37:04.371Z,40.91
2023-04-04T12:39:31.926Z,41.20
2023-04-04T12:42:03.429Z,42.04
2023-04-04T12:44:36.597Z,40.13
2023-04-04T12:47:06.357Z,38.87
2023-04-04T12:49:44.457Z,39.01
2023-04-04T12:52:20.799Z,39.91
2023-04-04T12:54:56.173Z,41.91
2023-04-04T12:57:34.138Z,39.35
2023-04-04T13:00:02.242Z,41.97
2023-04-04T13:02:29.469Z,38.60
2023-04-04T13:04:58.556Z,36.79
2023-04-04T13:07:32.839Z,38.38
2023-04-04T13:10:05.437Z,38.11
2023-04-04T13:12:58.705Z,37.54
2023-04-04T13:15:49.086Z,38.17
2023-04-04T13:18:21.927Z,37.24
2023-04-04T13:20:50.272Z,36.74
2023-04-04T13:23:18.030Z,38.51
2023-04-04T13:25:45.033Z,39.17
2023-04-04T13:28:12.433Z,37.41
2023-04-04T13:30:43.504Z,36.86
2023-04-04T13:33:11.141Z,38.17
2023-04-04T13:35:38.667Z,38.76
2023-04-04T13:38:06.049Z,39.95
2023-04-04T13:40:33.077Z,39.05
2023-04-04T13:43:00.275Z,37.08
2023-04-04T13:45:28.584Z,36.93
2023-04-04T13:47:55.753Z,37.94
2023-04-04T13:50:24.166Z,35.72
2023-04-04T13:52:53.975Z,37.59
2023-04-04T13:55:21.816Z,36.80
2023-04-04T13:57:48.954Z,38.59
2023-04-04T14:00:17.055Z,38.46
2023-04-04T14:02:44.273Z,38.58
2023-04-04T14:05:11.859Z,38.03
2023-04-04T14:07:38.917Z,37.94
2023-04-04T14:10:07.246Z,38.56
2023-04-04T14:12:34.254Z,38.31
2023-04-04T14:15:01.606Z,38.00
2023-04-04T14:17:28.771Z,36.57
2023-04-04T14:19:56.137Z,36.94
2023-04-04T14:22:23.189Z,38.71
2023-04-04T14:24:50.400Z,36.16
2023-04-04T14:27:17.556Z,35.83
2023-04-04T14:29:44.568Z,36.15
2023-04-04T14:32:11.607Z,36.81
2023-04-04T14:34:38.643Z,36.71
2023-04-04T14:37:06.087Z,36.82
2023-04-04T14:39:33.207Z,38.06
2023-04-04T14:42:00.474Z,37.64
2023-04-04T14:44:27.525Z,36.63
2023-04-04T14:46:54.934Z,36.46
2023-04-04T14:49:22.009Z,36.91
2023-04-04T14:51:50.420Z,36.45
2023-04-04T14:54:17.439Z,36.96
2023-04-04T14:56:45.520Z,37.40
2023-04-04T14:59:12.767Z,37.22
2023-04-04T15:01:40.102Z,37.09
2023-04-04T15:04:07.276Z,35.94
2023-04-04T15:06:37.824Z,36.91
2023-04-04T15:09:06.686Z,38.46
2023-04-04T15:11:35.483Z,37.80
2023-04-04T15:14:03.010Z,37.52
2023-04-04T15:16:42.219Z,37.49
2023-04-04T15:19:10.611Z,37.85
2023-04-04T15:21:37.620Z,38.03
2023-04-04T15:24:04.913Z,37.65
2023-04-04T15:26:32.145Z,37.51
2023-04-04T15:28:59.319Z,37.13
2023-04-04T15:31:26.678Z,36.99
2023-04-04T15:33:55.742Z,38.18
2023-04-04T15:36:26.296Z,37.34
2023-04-04T15:38:53.466Z,35.63
2023-04-04T15:41:20.476Z,37.67
2023-04-04T15:43:47.771Z,37.47
2023-04-04T15:46:16.123Z,36.54
2023-04-04T15:48:43.291Z,35.84
2023-04-04T15:51:10.520Z,34.16
2023-04-04T15:53:37.902Z,31.62
2023-04-04T15:56:05.058Z,30.66
2023-04-04T15:58:32.100Z,29.87
2023-04-04T16:01:00.434Z,29.66
2023-04-04T16:03:27.693Z,28.43
2023-04-04T16:05:54.958Z,28.53
2023-04-04T16:08:22.007Z,30.50
2023-04-04T16:10:48.973Z,28.80
2023-04-04T16:13:16.040Z,31.00
2023-04-04T16:15:43.155Z,30.69
2023-04-04T16:18:10.548Z,30.38
2023-04-04T16:20:39.789Z,28.88
2023-04-04T16:23:06.959Z,28.93
2023-04-04T16:25:33.940Z,27.76
2023-04-04T16:28:00.933Z,27.46
2023-04-04T16:31:01.052Z,28.42
2023-04-04T16:33:28.068Z,28.12
2023-04-04T16:35:55.122Z,26.08
2023-04-04T16:38:22.163Z,28.17
2023-04-04T16:40:49.305Z,25.61
2023-04-04T16:43:16.296Z,26.57
2023-04-04T16:45:43.278Z,26.36
2023-04-04T16:48:10.496Z,27.22
2023-04-04T16:50:37.612Z,28.06
2023-04-04T16:53:33.330Z,26.86
2023-04-04T16:56:00.551Z,26.63
2023-04-04T16:58:27.751Z,27.66
2023-04-04T17:00:54.825Z,28.15
2023-04-04T17:03:23.893Z,27.57
2023-04-04T17:05:55.878Z,27.88
2023-04-04T17:08:22.996Z,29.70
2023-04-04T17:10:50.123Z,29.68
2023-04-04T17:13:18.656Z,31.78
2023-04-04T17:15:46.716Z,33.82
2023-04-04T17:18:13.967Z,35.98
2023-04-04T17:20:42.614Z,36.41
2023-04-04T17:23:10.681Z,38.38
2023-04-04T17:25:37.731Z,39.08
2023-04-04T17:28:04.888Z,38.94
2023-04-04T17:30:32.355Z,39.66
2023-04-04T17:32:59.413Z,38.89
2023-04-04T17:35:27.375Z,39.73
2023-04-04T17:37:54.493Z,41.04
2023-04-04T17:40:21.582Z,40.76
2023-04-04T17:42:48.684Z,41.72
2023-04-04T17:45:16.441Z,41.22
2023-04-04T17:47:44.676Z,42.44
2023-04-04T17:50:12.039Z,41.92
2023-04-04T17:52:39.119Z,42.04
2023-04-04T17:55:08.667Z,42.44
2023-04-04T17:57:44.808Z,42.64
2023-04-04T18:00:13.143Z,43.61
2023-04-04T18:02:40.391Z,43.25
2023-04-04T18:05:09.214Z,43.17
2023-04-04T18:07:36.637Z,44.31
2023-04-04T18:10:04.051Z,43.81
2023-04-04T18:12:34.589Z,44.07
2023-04-04T18:15:04.088Z,44.48
2023-04-04T18:17:33.103Z,45.15
2023-04-04T18:20:03.019Z,44.96
2023-04-04T18:22:30.295Z,45.63
2023-04-04T18:24:59.748Z,47.37
2023-04-04T18:27:26.723Z,46.99
2023-04-04T18:29:53.705Z,46.79
2023-04-04T18:32:25.440Z,47.24
2023-04-04T18:34:52.567Z,48.29
2023-04-04T18:37:19.816Z,48.03
2023-04-04T18:39:46.933Z,48.21
2023-04-04T18:42:14.887Z,48.23
2023-04-04T18:44:42.118Z,49.26
2023-04-04T18:47:09.226Z,51.05
2023-04-04T18:49:36.375Z,52.14
2023-04-04T18:52:04.021Z,52.25
2023-04-04T18:54:31.355Z,53.05
2023-04-04T18:56:58.383Z,53.75
2023-04-04T18:59:25.702Z,54.46
2023-04-04T19:01:53.976Z,54.98
2023-04-04T19:04:21.667Z,56.73
2023-04-04T19:06:50.016Z,59.06
2023-04-04T19:09:19.273Z,58.85
2023-04-04T19:11:47.278Z,58.66
2023-04-04T19:14:14.653Z,59.19
2023-04-04T19:16:41.976Z,60.24
2023-04-04T19:19:12.025Z,61.83
2023-04-04T19:21:39.170Z,60.31
2023-04-04T19:24:06.550Z,61.30
2023-04-04T19:26:33.763Z,61.21
2023-04-04T19:29:01.009Z,61.65
2023-04-04T19:31:32.824Z,61.27
2023-04-04T19:34:03.229Z,62.26
2023-04-04T19:36:36.139Z,63.13
2023-04-04T19:39:04.753Z,63.27
2023-04-04T19:41:36.696Z,66.10
2023-04-04T19:44:06.314Z,65.54
2023-04-04T19:46:34.071Z,65.28
2023-04-04T19:49:12.306Z,65.94
2023-04-04T19:52:04.282Z,65.29
2023-04-04T19:54:40.987Z,66.14
2023-04-04T19:57:17.292Z,65.01
2023-04-04T19:59:47.562Z,67.22
2023-04-04T20:02:26.878Z,66.86
2023-04-04T20:04:54.665Z,67.58
2023-04-04T20:07:21.756Z,68.44
2023-04-04T20:09:51.285Z,68.31
2023-04-04T20:12:19.400Z,69.20
2023-04-04T20:14:46.569Z,71.61
2023-04-04T20:17:18.087Z,71.52
2023-04-04T20:19:45.266Z,73.03
2023-04-04T20:22:13.255Z,73.16
2023-04-04T20:24:42.301Z,72.21
2023-04-04T20:27:10.408Z,69.31
2023-04-04T20:29:37.831Z,71.09
2023-04-04T20:32:08.259Z,72.12
2023-04-04T20:34:46.106Z,72.60
2023-04-04T20:37:22.575Z,73.84
2023-04-04T20:40:01.345Z,73.34
2023-04-04T20:42:31.845Z,75.88
2023-04-04T20:45:08.082Z,76.11
2023-04-04T20:47:52.681Z,74.88
2023-04-04T20:50:22.541Z,76.76
2023-04-04T20:52:59.498Z,76.88
2023-04-04T20:55:30.396Z,76.84
2023-04-04T20:58:01.236Z,78.15
2023-04-04T21:00:34.103Z,77.83
2023-04-04T21:03:08.509Z,78.62
2023-04-04T21:05:38.668Z,79.20
2023-04-04T21:08:24.259Z,79.54
2023-04-04T21:10:56.205Z,80.37
2023-04-04T21:13:38.745Z,79.65
2023-04-04T21:16:16.792Z,80.28
2023-04-04T21:18:45.207Z,80.51
2023-04-04T21:21:18.400Z,80.82
2023-04-04T21:23:52.998Z,81.56
2023-04-04T21:26:31.731Z,82.08
2023-04-04T21:29:04.047Z,84.22
2023-04-04T21:31:35.981Z,81.83
2023-04-04T21:34:16.121Z,82.74
2023-04-04T21:36:44.609Z,82.09
2023-04-04T21:39:25.854Z,80.54
2023-04-04T21:41:56.559Z,82.04
2023-04-04T21:44:24.190Z,82.51
2023-04-04T21:46:51.239Z,83.97
2023-04-04T21:49:18.503Z,82.64
2023-04-04T21:51:45.843Z,84.37
2023-04-04T21:54:14.263Z,84.01
2023-04-04T21:56:41.510Z,86.24
2023-04-04T21:59:10.012Z,84.86
2023-04-04T22:01:37.810Z,84.53
2023-04-04T22:04:05.152Z,86.29
2023-04-04T22:06:32.180Z,86.40
2023-04-04T22:09:00.177Z,86.83
2023-04-04T22:11:27.646Z,87.25
2023-04-04T22:14:06.822Z,87.39
2023-04-04T22:16:38.968Z,87.35
2023-04-04T22:19:07.459Z,88.12
2023-04-04T22:21:37.185Z,88.45
2023-04-04T22:24:05.626Z,89.23
2023-04-04T22:26:33.386Z,88.28
2023-04-04T22:29:02.869Z,88.55
2023-04-04T22:31:30.358Z,89.14
2023-04-04T22:33:57.448Z,90.06
2023-04-04T22:36:25.134Z,90.55
2023-04-04T22:38:57.227Z,88.82
2023-04-04T22:41:27.086Z,88.46
2023-04-04T22:43:54.175Z,90.66
2023-04-04T22:46:21.468Z,90.81
2023-04-04T22:48:48.831Z,91.76
2023-04-04T22:51:16.312Z,91.21
2023-04-04T22:53:44.484Z,89.94
2023-04-04T22:56:11.734Z,90.47
2023-04-04T22:58:39.037Z,90.87
2023-04-04T23:01:06.518Z,90.15
2023-04-04T23:03:33.569Z,90.67
2023-04-04T23:06:00.690Z,90.95
2023-04-04T23:08:27.692Z,90.44
2023-04-04T23:10:55.429Z,91.72
2023-04-04T23:13:22.516Z,89.90
2023-04-04T23:15:49.658Z,89.59
2023-04-04T23:18:17.518Z,90.56
2023-04-04T23:20:44.614Z,90.05
2023-04-04T23:23:11.952Z,90.49
2023-04-04T23:25:38.990Z,90.49
2023-04-04T23:28:06.122Z,91.42
2023-04-04T23:30:33.180Z,91.75
2023-04-04T23:33:00.361Z,92.82
2023-04-04T23:35:27.665Z,93.57
2023-04-04T23:37:54.818Z,93.63
2023-04-04T23:40:21.844Z,93.20
2023-04-04T23:42:48.865Z,92.01
2023-04-04T23:45:16.199Z,91.76
2023-04-04T23:47:43.379Z,92.14
2023-04-04T23:50:10.872Z,92.31
2023-04-04T23:52:39.361Z,92.22
2023-04-04T23:55:07.006Z,92.61
2023-04-04T23:57:34.006Z,91.83
